Terminal Aerodrome Forecast
Issued by NWS

Home | Current Version | Previous Version | Text Only | Print | Product List | Glossary On
Versions: 1 2 3 4 5 6 7 8 9 10 11 12 13 14 15 16 17 18 19 20 21 22 23 24
000
FTUS41 KPBZ 252300
TAFDUJ
TAF
KDUJ 252334Z 2600/2624 03006KT P6SM BKN035 OVC050
     FM260200 05004KT 2SM -SN OVC008
     FM260400 05008KT 1SM -SN BR OVC006
      TEMPO 2605/2608 1/2SM SN OVC003
     FM261100 06007KT 2SM -SN OVC008
     FM262100 07006KT 3SM -SHSN OVC010=

USA.gov is the U.S. government's official web portal to all federal, state and local government web resources and services.